createdAt,value
2022-12-15T00:03:27.182Z,67.97
2022-12-15T00:08:59.297Z,62.20
2022-12-15T00:11:45.464Z,52.90
2022-12-15T00:14:32.578Z,47.15
2022-12-15T00:17:18.888Z,50.28
2022-12-15T00:20:04.705Z,49.15
2022-12-15T00:22:50.912Z,49.25
2022-12-15T00:25:36.709Z,44.10
2022-12-15T00:28:22.743Z,47.47
2022-12-15T00:31:08.408Z,47.33
2022-12-15T00:33:54.501Z,48.15
2022-12-15T00:36:40.114Z,72.87
2022-12-15T00:39:07.653Z,70.13
2022-12-15T00:41:34.794Z,59.38
2022-12-15T00:44:02.388Z,50.45
2022-12-15T00:46:48.355Z,54.67
2022-12-15T00:49:34.447Z,50.30
2022-12-15T00:52:20.153Z,52.53
2022-12-15T00:55:06.298Z,52.10
2022-12-15T00:57:52.072Z,47.30
2022-12-15T01:00:38.764Z,52.05
2022-12-15T01:03:40.762Z,56.30
2022-12-15T01:06:29.366Z,51.00
2022-12-15T01:09:15.844Z,55.78
2022-12-15T01:12:02.918Z,51.50
2022-12-15T01:14:49.649Z,52.10
2022-12-15T01:17:36.789Z,49.05
2022-12-15T01:20:21.092Z,52.15
2022-12-15T01:22:54.357Z,52.08
2022-12-15T01:25:24.886Z,56.40
2022-12-15T01:27:52.810Z,43.13
2022-12-15T01:30:23.691Z,37.97
2022-12-15T01:32:51.493Z,29.70
2022-12-15T01:35:20.315Z,37.40
2022-12-15T01:37:50.242Z,32.85
2022-12-15T01:40:38.684Z,27.48
2022-12-15T01:43:21.161Z,32.17
2022-12-15T01:46:28.348Z,31.17
2022-12-15T01:49:21.043Z,28.55
2022-12-15T01:51:52.749Z,30.30
2022-12-15T01:54:41.898Z,31.70
2022-12-15T01:57:19.265Z,32.83
2022-12-15T01:59:51.397Z,39.80
2022-12-15T02:02:21.677Z,39.50
2022-12-15T02:04:51.674Z,37.92
2022-12-15T02:07:19.908Z,37.97
2022-12-15T02:09:49.688Z,33.47
2022-12-15T02:12:45.904Z,32.88
2022-12-15T02:15:33.871Z,30.73
2022-12-15T02:18:42.863Z,31.40
2022-12-15T02:21:17.919Z,32.90
2022-12-15T02:24:19.336Z,34.10
2022-12-15T02:27:30.732Z,32.15
2022-12-15T02:30:17.319Z,32.45
2022-12-15T02:38:38.543Z,36.38
2022-12-15T02:41:29.809Z,46.15
2022-12-15T02:44:35.396Z,62.83
2022-12-15T02:47:28.193Z,43.47
2022-12-15T02:50:16.469Z,49.20
2022-12-15T02:53:31.835Z,40.70
2022-12-15T02:56:05.667Z,42.42
2022-12-15T02:58:44.471Z,33.25
2022-12-15T03:01:17.610Z,30.45
2022-12-15T03:03:47.623Z,33.92
2022-12-15T03:06:16.432Z,32.40
2022-12-15T03:08:43.740Z,41.72
2022-12-15T03:11:11.554Z,29.35
2022-12-15T03:13:38.716Z,26.65
2022-12-15T03:16:06.584Z,25.85
2022-12-15T03:18:34.338Z,27.20
2022-12-15T03:21:01.943Z,25.58
2022-12-15T03:23:29.740Z,23.52
2022-12-15T03:25:57.549Z,22.58
2022-12-15T03:28:24.892Z,22.42
2022-12-15T03:30:52.440Z,21.88
2022-12-15T03:33:20.184Z,26.27
2022-12-15T03:35:47.783Z,27.13
2022-12-15T03:38:15.063Z,24.60
2022-12-15T03:40:43.129Z,25.40
2022-12-15T03:43:10.294Z,26.70
2022-12-15T03:45:37.940Z,22.58
2022-12-15T03:48:05.268Z,26.38
2022-12-15T03:50:32.890Z,27.27
2022-12-15T03:53:02.584Z,28.10
2022-12-15T03:55:30.511Z,30.30
2022-12-15T03:57:59.388Z,29.45
2022-12-15T04:00:27.601Z,28.15
2022-12-15T04:02:55.024Z,28.25
2022-12-15T04:05:30.675Z,30.80
2022-12-15T04:07:59.675Z,27.67
2022-12-15T04:10:33.910Z,24.40
2022-12-15T04:13:05.729Z,23.88
2022-12-15T04:15:34.308Z,22.55
2022-12-15T04:18:03.268Z,22.90
2022-12-15T04:20:31.409Z,23.35
2022-12-15T04:22:58.765Z,23.13
2022-12-15T04:25:45.582Z,24.23
2022-12-15T04:28:31.864Z,22.52
2022-12-15T04:31:19.016Z,22.30
2022-12-15T04:34:11.724Z,23.65
2022-12-15T04:37:00.599Z,22.77
2022-12-15T04:39:46.782Z,27.17
2022-12-15T04:45:23.302Z,25.07
2022-12-15T04:48:09.448Z,24.52
2022-12-15T04:50:55.268Z,27.83
2022-12-15T04:53:41.353Z,29.35
2022-12-15T04:56:32.928Z,31.07
2022-12-15T04:59:22.556Z,30.52
2022-12-15T05:02:08.566Z,35.50
2022-12-15T05:04:54.944Z,35.65
2022-12-15T05:07:42.787Z,39.40
2022-12-15T05:10:29.607Z,37.72
2022-12-15T05:13:23.953Z,39.75
2022-12-15T05:16:10.009Z,42.55
2022-12-15T05:18:56.070Z,50.22
2022-12-15T05:21:42.247Z,49.42
2022-12-15T05:24:27.996Z,56.72
2022-12-15T05:27:14.073Z,48.45
2022-12-15T05:29:59.898Z,45.00
2022-12-15T05:32:27.510Z,43.30
2022-12-15T05:34:54.721Z,43.65
2022-12-15T05:37:22.429Z,43.90
2022-12-15T05:39:52.062Z,46.05
2022-12-15T05:42:19.594Z,52.20
2022-12-15T05:44:46.774Z,46.53
2022-12-15T05:47:17.424Z,54.42
2022-12-15T05:49:44.599Z,125.15
2022-12-15T05:52:12.124Z,109.30
2022-12-15T05:54:39.444Z,60.13
2022-12-15T05:57:07.013Z,79.03
2022-12-15T05:59:34.181Z,56.60
2022-12-15T06:02:01.833Z,53.15
2022-12-15T06:04:29.290Z,59.83
2022-12-15T06:06:56.865Z,51.13
2022-12-15T06:09:24.063Z,49.17
2022-12-15T06:11:51.634Z,46.25
2022-12-15T06:14:18.758Z,47.25
2022-12-15T06:16:50.178Z,47.33
2022-12-15T06:19:17.853Z,51.17
2022-12-15T06:21:45.298Z,50.83
2022-12-15T06:24:12.476Z,37.40
2022-12-15T06:26:40.999Z,41.58
2022-12-15T06:29:10.950Z,44.95
2022-12-15T06:31:40.224Z,47.75
2022-12-15T06:34:11.738Z,50.70
2022-12-15T06:36:40.153Z,49.45
2022-12-15T06:39:12.232Z,51.88
2022-12-15T06:41:40.228Z,48.42
2022-12-15T06:44:08.113Z,51.63
2022-12-15T06:46:35.820Z,49.05
2022-12-15T06:49:03.533Z,37.85
2022-12-15T06:51:32.356Z,35.83
2022-12-15T06:53:59.495Z,35.85
2022-12-15T06:56:34.822Z,19.73
2022-12-15T06:59:04.299Z,14.82
2022-12-15T07:01:32.936Z,14.40
2022-12-15T07:04:01.683Z,11.68
2022-12-15T07:06:36.678Z,12.13
2022-12-15T07:09:07.583Z,10.85
2022-12-15T07:11:35.619Z,10.75
2022-12-15T07:14:03.385Z,11.32
2022-12-15T07:16:31.408Z,11.57
2022-12-15T07:18:58.932Z,12.05
2022-12-15T07:21:26.566Z,12.15
2022-12-15T07:23:56.062Z,11.43
2022-12-15T07:26:24.959Z,11.70
2022-12-15T07:28:53.971Z,12.65
2022-12-15T07:31:22.872Z,12.27
2022-12-15T07:33:52.572Z,10.57
2022-12-15T07:36:20.661Z,12.30
2022-12-15T07:38:50.771Z,11.55
2022-12-15T07:41:19.561Z,11.85
2022-12-15T07:43:48.049Z,12.73
2022-12-15T07:46:16.438Z,11.77
2022-12-15T07:48:44.353Z,12.80
2022-12-15T07:51:20.193Z,11.93
2022-12-15T07:53:51.798Z,11.73
2022-12-15T07:56:20.468Z,10.70
2022-12-15T07:58:48.582Z,10.93
2022-12-15T08:01:16.446Z,11.93
2022-12-15T08:03:45.324Z,11.88
2022-12-15T08:06:14.402Z,10.68
2022-12-15T08:08:44.193Z,11.93
2022-12-15T08:11:14.391Z,11.02
2022-12-15T08:16:32.109Z,10.70
2022-12-15T08:18:59.650Z,13.43
2022-12-15T08:21:26.875Z,16.85
2022-12-15T08:23:54.541Z,12.10
2022-12-15T08:26:26.790Z,10.45
2022-12-15T08:31:45.110Z,9.68
2022-12-15T08:34:12.940Z,11.35
2022-12-15T08:36:40.256Z,11.70
2022-12-15T08:39:07.851Z,12.80
2022-12-15T08:41:35.062Z,13.50
2022-12-15T08:44:02.696Z,14.90
2022-12-15T08:46:34.001Z,11.65
2022-12-15T08:49:04.279Z,11.75
2022-12-15T08:51:33.193Z,15.00
2022-12-15T08:54:01.283Z,14.90
2022-12-15T08:56:29.395Z,14.70
2022-12-15T08:59:00.119Z,12.15
2022-12-15T09:01:31.331Z,14.10
2022-12-15T09:03:59.927Z,14.65
2022-12-15T09:06:30.351Z,14.85
2022-12-15T09:09:00.367Z,13.93
2022-12-15T09:11:29.056Z,11.80
2022-12-15T09:13:57.616Z,13.25
2022-12-15T09:16:28.030Z,12.45
2022-12-15T09:18:58.465Z,11.75
2022-12-15T09:21:28.365Z,12.10
2022-12-15T09:24:00.718Z,13.25
2022-12-15T09:26:30.804Z,13.02
2022-12-15T09:28:58.473Z,9.98
2022-12-15T09:31:33.428Z,10.27
2022-12-15T09:34:02.006Z,13.55
2022-12-15T09:36:30.578Z,13.10
2022-12-15T09:38:59.533Z,10.15
2022-12-15T09:41:30.509Z,10.55
2022-12-15T09:44:03.480Z,10.10
2022-12-15T09:46:40.700Z,9.65
2022-12-15T09:49:32.810Z,11.45
2022-12-15T09:52:12.250Z,14.15
2022-12-15T09:54:44.040Z,10.55
2022-12-15T09:57:40.010Z,13.85
2022-12-15T10:00:16.994Z,10.93
2022-12-15T10:02:50.440Z,11.25
2022-12-15T10:06:15.363Z,11.50
2022-12-15T10:08:50.771Z,13.48
2022-12-15T10:11:50.542Z,10.48
2022-12-15T10:14:41.112Z,12.40
2022-12-15T10:17:45.870Z,10.57
2022-12-15T10:20:22.757Z,11.50
2022-12-15T10:22:51.572Z,14.65
2022-12-15T10:28:42.577Z,13.65
2022-12-15T10:31:34.171Z,11.98
2022-12-15T10:34:11.535Z,13.02
2022-12-15T10:36:50.072Z,13.57
2022-12-15T10:39:18.437Z,10.77
2022-12-15T10:41:45.726Z,11.68
2022-12-15T10:44:32.119Z,13.15
2022-12-15T10:47:10.890Z,10.70
2022-12-15T10:49:38.432Z,13.30
2022-12-15T10:52:05.813Z,11.50
2022-12-15T10:54:45.376Z,11.95
2022-12-15T10:57:32.045Z,128.07
2022-12-15T11:00:30.520Z,26.15
2022-12-15T11:02:59.061Z,15.43
2022-12-15T11:05:27.744Z,9.60
2022-12-15T11:08:13.347Z,9.18
2022-12-15T11:11:16.671Z,10.75
2022-12-15T11:14:06.131Z,11.23
2022-12-15T11:16:33.812Z,10.73
2022-12-15T11:19:22.651Z,11.05
2022-12-15T11:21:56.597Z,9.35
2022-12-15T11:24:35.585Z,16.17
2022-12-15T11:27:26.476Z,11.88
2022-12-15T11:30:13.439Z,10.98
2022-12-15T11:32:44.579Z,10.65
2022-12-15T11:35:14.511Z,10.48
2022-12-15T11:37:57.124Z,11.05
2022-12-15T11:40:31.057Z,11.48
2022-12-15T11:43:25.100Z,11.30
2022-12-15T11:46:20.300Z,9.50
2022-12-15T11:49:29.775Z,12.68
2022-12-15T11:52:04.012Z,11.65
2022-12-15T11:54:55.052Z,11.40
2022-12-15T11:57:28.335Z,10.75
2022-12-15T12:00:05.651Z,10.85
2022-12-15T12:03:09.913Z,11.98
2022-12-15T12:06:10.421Z,11.18
2022-12-15T12:09:02.136Z,10.60
2022-12-15T12:11:40.770Z,11.88
2022-12-15T12:14:14.619Z,12.80
2022-12-15T12:16:51.514Z,11.98
2022-12-15T12:19:26.861Z,12.43
2022-12-15T12:22:07.002Z,14.85
2022-12-15T12:24:41.962Z,16.42
2022-12-15T12:27:29.993Z,13.02
2022-12-15T12:30:05.641Z,12.77
2022-12-15T12:38:11.249Z,18.97
2022-12-15T12:40:42.694Z,15.73
2022-12-15T12:43:27.160Z,14.95
2022-12-15T12:45:58.793Z,32.60
2022-12-15T12:48:32.795Z,33.83
2022-12-15T12:51:23.740Z,24.30
2022-12-15T12:53:51.787Z,36.17
2022-12-15T12:56:43.236Z,28.10
2022-12-15T12:59:29.148Z,21.17
2022-12-15T13:02:14.885Z,15.73
2022-12-15T13:04:49.531Z,16.75
2022-12-15T13:08:05.338Z,15.70
2022-12-15T13:10:36.426Z,43.17
2022-12-15T13:13:30.046Z,41.22
2022-12-15T13:16:05.204Z,34.22
2022-12-15T13:18:55.232Z,42.88
2022-12-15T13:21:41.763Z,27.55
2022-12-15T13:24:41.801Z,33.28
2022-12-15T13:27:09.475Z,37.03
2022-12-15T13:29:53.894Z,34.60
2022-12-15T13:32:41.544Z,44.88
2022-12-15T13:35:14.936Z,48.83
2022-12-15T13:38:10.149Z,49.28
2022-12-15T13:41:01.407Z,25.90
2022-12-15T13:43:29.615Z,24.27
2022-12-15T13:46:00.383Z,31.35
2022-12-15T13:48:45.220Z,23.40
2022-12-15T13:51:28.824Z,18.65
2022-12-15T13:54:10.145Z,19.75
2022-12-15T13:56:55.116Z,19.08
2022-12-15T14:00:10.126Z,24.58
2022-12-15T14:02:40.250Z,25.02
2022-12-15T14:05:21.295Z,31.30
2022-12-15T14:07:54.789Z,36.40
2022-12-15T14:10:39.657Z,37.60
2022-12-15T14:13:16.193Z,35.60
2022-12-15T14:15:50.892Z,30.77
2022-12-15T14:18:30.630Z,30.42
2022-12-15T14:20:59.771Z,23.20
2022-12-15T14:23:40.701Z,34.67
2022-12-15T14:26:14.375Z,59.58
2022-12-15T14:28:44.160Z,50.90
2022-12-15T14:31:24.486Z,51.92
2022-12-15T14:34:06.585Z,90.93
2022-12-15T14:36:35.769Z,62.60
2022-12-15T14:39:22.222Z,49.30
2022-12-15T14:41:51.790Z,54.38
2022-12-15T14:44:38.703Z,56.58
2022-12-15T14:47:17.465Z,79.63
2022-12-15T14:49:46.337Z,71.07
2022-12-15T14:52:40.022Z,84.45
2022-12-15T14:55:36.401Z,62.80
2022-12-15T14:58:34.734Z,64.45
2022-12-15T15:01:08.011Z,71.22
2022-12-15T15:03:07.200Z,15.80
2022-12-15T15:03:10.627Z,12.05
2022-12-15T15:03:40.138Z,82.93
2022-12-15T15:06:18.104Z,69.78
2022-12-15T15:08:51.390Z,51.25
2022-12-15T15:11:29.865Z,59.42
2022-12-15T15:14:03.266Z,49.20
2022-12-15T15:16:31.303Z,47.13
2022-12-15T15:19:01.811Z,36.55
2022-12-15T15:21:31.583Z,45.72
2022-12-15T15:24:21.170Z,41.25
2022-12-15T15:26:49.424Z,40.25
2022-12-15T15:29:41.246Z,35.90
2022-12-15T15:32:17.700Z,39.78
2022-12-15T15:34:47.260Z,42.33
2022-12-15T15:37:25.431Z,45.88
2022-12-15T15:39:56.545Z,45.88
2022-12-15T15:42:30.750Z,40.97
2022-12-15T15:45:02.415Z,37.85
2022-12-15T15:47:29.960Z,46.25
2022-12-15T15:49:59.899Z,42.47
2022-12-15T15:52:30.114Z,46.08
2022-12-15T15:54:59.910Z,33.28
2022-12-15T15:57:27.299Z,44.30
2022-12-15T15:59:55.490Z,43.75
2022-12-15T16:02:23.875Z,35.30
2022-12-15T16:04:52.554Z,33.38
2022-12-15T16:07:27.734Z,35.38
2022-12-15T16:09:57.274Z,37.20
2022-12-15T16:12:29.302Z,43.53
2022-12-15T16:14:57.185Z,42.95
2022-12-15T16:17:25.737Z,41.17
2022-12-15T16:19:53.338Z,45.97
2022-12-15T16:22:22.570Z,53.75
2022-12-15T16:24:50.413Z,35.03
2022-12-15T16:27:17.903Z,43.88
2022-12-15T16:29:45.495Z,56.22
2022-12-15T16:32:13.472Z,47.17
2022-12-15T16:34:42.122Z,47.42
2022-12-15T16:37:26.650Z,34.45
2022-12-15T16:39:54.370Z,31.33
2022-12-15T16:42:21.529Z,44.38
2022-12-15T16:44:49.152Z,39.38
2022-12-15T16:47:16.482Z,41.35
2022-12-15T16:49:44.163Z,43.53
2022-12-15T16:52:21.760Z,54.80
2022-12-15T16:54:50.466Z,45.25
2022-12-15T16:57:18.630Z,42.17
2022-12-15T16:59:46.389Z,47.08
2022-12-15T17:02:29.877Z,46.30
2022-12-15T17:04:57.701Z,38.53
2022-12-15T17:07:28.305Z,45.65
2022-12-15T17:09:56.698Z,48.67
2022-12-15T17:12:24.638Z,45.00
2022-12-15T17:14:52.387Z,54.22
2022-12-15T17:17:19.962Z,47.03
2022-12-15T17:20:28.541Z,46.25
2022-12-15T17:22:37.556Z,46.22
2022-12-15T17:25:05.498Z,63.95
2022-12-15T17:27:32.847Z,45.67
2022-12-15T17:30:01.738Z,44.58
2022-12-15T17:32:29.963Z,92.63
2022-12-15T17:34:58.561Z,48.97
2022-12-15T17:37:28.102Z,49.00
2022-12-15T17:39:59.883Z,42.53
2022-12-15T17:42:27.116Z,47.60
2022-12-15T17:44:55.377Z,39.17
2022-12-15T17:47:24.353Z,41.33
2022-12-15T17:49:52.655Z,42.53
2022-12-15T17:52:19.720Z,49.42
2022-12-15T17:54:47.501Z,44.50
2022-12-15T17:57:14.645Z,50.90
2022-12-15T17:59:42.270Z,51.53
2022-12-15T18:02:14.130Z,51.15
2022-12-15T18:04:43.052Z,45.83
2022-12-15T18:07:16.151Z,79.38
2022-12-15T18:09:44.095Z,86.25
2022-12-15T18:12:23.710Z,41.15
2022-12-15T18:14:52.230Z,49.45
2022-12-15T18:17:20.233Z,37.83
2022-12-15T18:19:48.303Z,35.90
2022-12-15T18:22:24.301Z,41.40
2022-12-15T18:24:54.212Z,48.75
2022-12-15T18:27:24.463Z,48.83
2022-12-15T18:29:52.874Z,52.17
2022-12-15T18:32:23.272Z,98.00
2022-12-15T18:34:51.980Z,47.78
2022-12-15T18:37:21.130Z,129.05
2022-12-15T18:39:49.498Z,175.43
2022-12-15T18:42:19.442Z,73.72
2022-12-15T18:44:49.312Z,48.50
2022-12-15T18:47:22.760Z,59.53
2022-12-15T18:49:50.756Z,48.80
2022-12-15T18:52:24.167Z,50.75
2022-12-15T18:54:54.346Z,47.90
2022-12-15T18:57:30.662Z,51.67
2022-12-15T19:00:24.708Z,52.58
2022-12-15T19:02:55.539Z,55.83
2022-12-15T19:05:29.904Z,43.97
2022-12-15T19:08:13.529Z,45.38
2022-12-15T19:11:31.143Z,50.25
2022-12-15T19:14:00.376Z,58.45
2022-12-15T19:16:48.508Z,44.72
2022-12-15T19:19:34.578Z,55.13
2022-12-15T19:22:22.570Z,54.78
2022-12-15T19:24:56.139Z,61.92
2022-12-15T19:27:29.328Z,64.18
2022-12-15T19:29:57.791Z,55.83
2022-12-15T19:32:28.041Z,47.60
2022-12-15T19:34:55.875Z,51.00
2022-12-15T19:37:27.668Z,67.43
2022-12-15T19:39:57.876Z,71.15
2022-12-15T19:42:37.384Z,62.42
2022-12-15T19:45:16.734Z,52.90
2022-12-15T19:47:44.601Z,44.63
2022-12-15T19:50:24.462Z,37.70
2022-12-15T19:52:59.460Z,34.85
2022-12-15T19:55:32.935Z,34.72
2022-12-15T19:58:01.742Z,33.50
2022-12-15T20:00:29.079Z,40.38
2022-12-15T20:02:57.046Z,36.35
2022-12-15T20:05:26.020Z,35.42
2022-12-15T20:07:54.140Z,38.88
2022-12-15T20:10:32.284Z,46.63
2022-12-15T20:13:01.778Z,39.45
2022-12-15T20:15:29.262Z,42.40
2022-12-15T20:17:57.639Z,46.35
2022-12-15T20:20:28.110Z,48.17
2022-12-15T20:23:00.162Z,49.05
2022-12-15T20:25:32.790Z,46.33
2022-12-15T20:28:01.608Z,38.55
2022-12-15T20:30:35.627Z,40.35
2022-12-15T20:33:04.566Z,37.63
2022-12-15T20:35:34.899Z,45.78
2022-12-15T20:38:26.640Z,55.63
2022-12-15T20:40:58.028Z,52.85
2022-12-15T20:43:27.377Z,46.00
2022-12-15T20:46:05.828Z,45.83
2022-12-15T20:48:36.875Z,47.92
2022-12-15T20:51:09.557Z,47.60
2022-12-15T20:53:39.210Z,41.88
2022-12-15T20:56:06.787Z,44.65
2022-12-15T20:58:40.174Z,45.47
2022-12-15T21:01:33.043Z,41.85
2022-12-15T21:04:04.915Z,37.45
2022-12-15T21:06:32.287Z,38.30
2022-12-15T21:09:00.135Z,29.45
2022-12-15T21:11:31.500Z,34.17
2022-12-15T21:14:04.363Z,38.88
2022-12-15T21:16:33.024Z,28.65
2022-12-15T21:19:20.506Z,39.75
2022-12-15T21:21:52.147Z,31.42
2022-12-15T21:24:28.681Z,39.60
2022-12-15T21:26:56.519Z,38.63
2022-12-15T21:29:27.706Z,44.45
2022-12-15T21:31:55.213Z,44.72
2022-12-15T21:34:23.254Z,33.33
2022-12-15T21:36:54.815Z,39.60
2022-12-15T21:39:30.254Z,53.10
2022-12-15T21:42:04.679Z,38.45
2022-12-15T21:44:32.368Z,42.63
2022-12-15T21:46:59.691Z,64.13
2022-12-15T21:49:27.345Z,48.33
2022-12-15T21:51:58.337Z,47.30
2022-12-15T21:54:31.514Z,49.55
2022-12-15T21:57:00.614Z,51.40
2022-12-15T21:59:32.990Z,96.32
2022-12-15T22:02:01.224Z,39.20
2022-12-15T22:04:32.382Z,36.17
2022-12-15T22:07:00.390Z,62.65
2022-12-15T22:09:27.942Z,44.33
2022-12-15T22:11:56.700Z,32.63
2022-12-15T22:14:28.094Z,36.92
2022-12-15T22:16:56.425Z,37.65
2022-12-15T22:19:24.217Z,40.17
2022-12-15T22:21:52.238Z,41.50
2022-12-15T22:24:19.962Z,47.50
2022-12-15T22:26:47.873Z,41.78
2022-12-15T22:29:21.706Z,44.22
2022-12-15T22:31:53.174Z,43.33
2022-12-15T22:34:26.370Z,36.85
2022-12-15T22:36:54.928Z,32.45
2022-12-15T22:39:22.697Z,35.60
2022-12-15T22:41:53.216Z,48.88
2022-12-15T22:44:32.213Z,35.28
2022-12-15T22:47:01.745Z,38.88
2022-12-15T22:49:37.547Z,48.53
2022-12-15T22:52:19.609Z,45.05
2022-12-15T22:54:48.189Z,48.97
2022-12-15T22:57:24.290Z,45.10
2022-12-15T23:00:00.934Z,58.75
2022-12-15T23:02:32.901Z,36.67
2022-12-15T23:05:01.764Z,32.80
2022-12-15T23:07:29.051Z,35.78
2022-12-15T23:10:15.199Z,31.27
2022-12-15T23:12:43.136Z,35.20
2022-12-15T23:15:29.756Z,33.78
2022-12-15T23:17:57.645Z,30.80
2022-12-15T23:20:25.328Z,33.05
2022-12-15T23:22:52.626Z,34.28
2022-12-15T23:25:23.224Z,37.45
2022-12-15T23:27:50.500Z,33.80
2022-12-15T23:30:18.307Z,32.83
2022-12-15T23:32:46.024Z,32.92
2022-12-15T23:35:13.813Z,34.60
2022-12-15T23:37:41.591Z,35.75
2022-12-15T23:40:10.218Z,37.95
2022-12-15T23:42:37.463Z,35.30
2022-12-15T23:45:05.705Z,48.72
2022-12-15T23:47:33.813Z,48.60
2022-12-15T23:50:01.356Z,37.13
2022-12-15T23:52:28.992Z,41.60
2022-12-15T23:54:57.362Z,63.47
2022-12-15T23:57:24.754Z,55.78
2022-12-15T23:59:52.559Z,44.05
